Time;durP1;ratioP1;P1;durP2;ratioP2;P2;SDS_P1;SDS_P2;PMS_P1;PMS_P2;Temp;Humidity;BMP_temperature;BMP_pressure;BME280_temperature;BME280_humidity;BME280_pressure;Samples;Min_cycle;Max_cycle;Signal;HPM_P1;HPM_P2
2021/08/07 04:00:27;;;;;;;4.50;4.10;;;17.00;99.90;;;;;;6008714;23;20490;-68
2021/08/07 04:02:54;;;;;;;5.17;4.67;;;16.90;99.90;;;;;;4997388;28;20448;-68
2021/08/07 04:05:20;;;;;;;8.30;5.17;;;16.90;99.90;;;;;;4998105;28;20465;-68
2021/08/07 04:07:47;;;;;;;6.40;4.73;;;16.80;99.90;;;;;;4997479;28;20461;-68
2021/08/07 04:10:16;;;;;;;4.93;4.43;;;16.80;99.90;;;;;;4998556;28;20463;-67
2021/08/07 04:12:44;;;;;;;7.53;4.80;;;16.90;99.90;;;;;;5001643;28;20457;-68
2021/08/07 04:15:11;;;;;;;5.33;4.73;;;16.90;99.90;;;;;;5001627;28;20460;-68
2021/08/07 04:17:40;;;;;;;4.80;4.20;;;16.80;99.90;;;;;;4999936;28;20793;-69
2021/08/07 04:20:10;;;;;;;5.67;4.50;;;16.80;99.90;;;;;;4997677;28;20461;-68
2021/08/07 04:22:37;;;;;;;5.00;4.30;;;16.80;99.90;;;;;;4997776;28;20454;-68
2021/08/07 04:25:05;;;;;;;9.00;5.10;;;16.80;99.90;;;;;;4997503;28;20488;-68
2021/08/07 04:27:32;;;;;;;6.23;4.57;;;16.80;99.90;;;;;;4998728;28;20815;-68
2021/08/07 04:29:58;;;;;;;4.80;4.50;;;16.80;99.90;;;;;;4996635;28;20454;-68
2021/08/07 04:32:25;;;;;;;5.53;5.00;;;16.80;99.90;;;;;;4996171;28;20812;-68
2021/08/07 04:34:53;;;;;;;5.70;5.13;;;16.70;99.90;;;;;;4996038;28;20464;-68
2021/08/07 04:37:20;;;;;;;7.93;5.00;;;16.70;99.90;;;;;;4996832;28;20461;-68
2021/08/07 04:39:47;;;;;;;8.53;5.30;;;16.60;99.90;;;;;;4995897;28;20993;-68
2021/08/07 04:42:13;;;;;;;5.03;4.63;;;16.70;99.90;;;;;;4995867;28;20883;-68
2021/08/07 04:44:40;;;;;;;6.33;4.80;;;16.80;99.90;;;;;;4997208;28;20477;-68
2021/08/07 04:47:07;;;;;;;5.07;4.67;;;16.80;99.90;;;;;;4997743;28;20787;-68
2021/08/07 04:49:34;;;;;;;5.10;4.60;;;16.90;99.90;;;;;;4998290;28;20453;-68
2021/08/07 04:52:04;;;;;;;5.47;4.77;;;17.00;99.90;;;;;;4996172;28;21009;-68
2021/08/07 04:54:30;;;;;;;4.40;4.10;;;17.00;99.90;;;;;;4995867;28;20939;-68
2021/08/07 04:56:57;;;;;;;4.07;3.70;;;17.10;99.90;;;;;;4996905;28;20795;-68
2021/08/07 04:59:24;;;;;;;6.20;3.63;;;17.20;99.90;;;;;;4996720;28;20464;-68
2021/08/07 05:01:51;;;;;;;4.83;4.10;;;17.30;99.90;;;;;;4996667;28;20485;-68
2021/08/07 05:04:17;;;;;;;5.40;4.07;;;17.40;99.90;;;;;;4996618;28;20482;-68
2021/08/07 05:06:45;;;;;;;4.53;3.43;;;17.50;99.90;;;;;;4996293;28;20461;-68
2021/08/07 05:09:13;;;;;;;3.90;3.60;;;17.50;99.90;;;;;;4996345;28;20554;-68
2021/08/07 05:11:39;;;;;;;5.20;3.80;;;17.60;99.90;;;;;;4996322;28;20486;-68
2021/08/07 05:14:06;;;;;;;3.27;3.03;;;17.70;99.90;;;;;;4996497;28;20454;-68
2021/08/07 05:16:33;;;;;;;5.13;4.07;;;17.70;99.90;;;;;;4995894;28;20460;-68
2021/08/07 05:18:59;;;;;;;4.00;3.70;;;17.80;99.90;;;;;;4996400;28;20873;-68
2021/08/07 05:21:26;;;;;;;3.70;3.40;;;17.80;99.90;;;;;;4996286;28;20478;-68
2021/08/07 05:23:53;;;;;;;3.90;3.03;;;17.80;99.90;;;;;;4996133;28;20477;-68
2021/08/07 05:26:21;;;;;;;6.07;3.47;;;17.80;99.90;;;;;;4996184;28;20461;-68
2021/08/07 05:28:48;;;;;;;3.57;3.23;;;17.90;99.90;;;;;;4996081;28;20461;-68
2021/08/07 05:31:14;;;;;;;3.30;3.00;;;17.90;99.90;;;;;;4996031;28;20477;-68
2021/08/07 05:33:41;;;;;;;4.00;3.60;;;18.00;99.90;;;;;;4996028;28;20457;-68
2021/08/07 05:36:08;;;;;;;7.10;3.73;;;18.00;99.90;;;;;;4996160;28;20529;-69
2021/08/07 05:38:34;;;;;;;4.97;3.43;;;18.00;99.90;;;;;;4995772;28;20944;-69
2021/08/07 05:41:01;;;;;;;4.87;3.40;;;18.00;99.90;;;;;;4995555;28;20485;-68
2021/08/07 05:43:29;;;;;;;3.90;3.53;;;18.00;99.90;;;;;;4995262;28;20453;-68
2021/08/07 05:45:56;;;;;;;6.60;3.80;;;18.00;99.90;;;;;;4994981;28;20457;-68
2021/08/07 05:48:23;;;;;;;11.60;4.07;;;18.10;99.90;;;;;;4994994;28;20464;-68
2021/08/07 05:50:49;;;;;;;5.47;3.53;;;18.30;99.90;;;;;;4994765;28;20474;-68
2021/08/07 05:53:16;;;;;;;5.70;3.33;;;18.40;99.90;;;;;;4995603;28;20941;-68
2021/08/07 05:55:43;;;;;;;3.87;3.53;;;18.50;99.90;;;;;;4996360;28;20457;-68
2021/08/07 05:58:09;;;;;;;4.40;3.33;;;18.60;99.90;;;;;;4996506;28;20464;-68
2021/08/07 06:00:37;;;;;;;5.00;3.70;;;18.60;99.90;;;;;;4995810;28;20833;-68
2021/08/07 06:03:04;;;;;;;4.10;3.70;;;18.60;99.90;;;;;;4995858;28;20453;-68
2021/08/07 06:05:31;;;;;;;10.50;3.47;;;18.70;99.90;;;;;;4996176;28;20477;-68
2021/08/07 06:07:58;;;;;;;5.43;3.67;;;18.80;99.90;;;;;;4995806;28;20462;-68
2021/08/07 06:10:24;;;;;;;5.00;3.43;;;18.90;99.90;;;;;;4995817;28;20461;-68
2021/08/07 06:12:51;;;;;;;3.87;3.50;;;19.00;99.90;;;;;;4997354;28;20804;-68
2021/08/07 06:15:18;;;;;;;3.63;2.77;;;19.00;99.90;;;;;;4999199;28;20457;-68
2021/08/07 06:17:46;;;;;;;3.90;3.60;;;19.00;99.90;;;;;;4995208;28;20461;-68
2021/08/07 06:20:14;;;;;;;3.70;3.23;;;19.00;99.90;;;;;;4998281;28;20457;-67
2021/08/07 06:22:41;;;;;;;3.67;3.30;;;19.10;99.90;;;;;;4998925;28;20461;-68
2021/08/07 06:25:09;;;;;;;3.87;3.30;;;19.10;99.90;;;;;;4998073;28;20474;-68
2021/08/07 06:27:36;;;;;;;4.77;3.20;;;19.20;99.90;;;;;;4998474;28;20460;-68
2021/08/07 06:30:03;;;;;;;5.17;3.50;;;19.50;99.90;;;;;;4998595;28;20465;-68
2021/08/07 06:32:30;;;;;;;3.70;3.40;;;19.80;99.90;;;;;;4998289;28;20835;-68
2021/08/07 06:34:58;;;;;;;4.57;2.80;;;19.90;99.90;;;;;;4999385;28;20434;-67
2021/08/07 06:37:25;;;;;;;6.60;3.20;;;20.20;99.90;;;;;;4998682;28;20442;-67
2021/08/07 06:39:52;;;;;;;3.23;2.90;;;20.30;99.90;;;;;;4998184;28;20453;-68
2021/08/07 06:42:19;;;;;;;3.03;2.83;;;20.40;99.90;;;;;;4998374;28;20478;-66
2021/08/07 06:44:45;;;;;;;4.37;2.80;;;20.60;99.90;;;;;;4998175;28;20473;-66
2021/08/07 06:47:12;;;;;;;5.50;3.00;;;20.60;99.90;;;;;;4998400;28;20456;-68
2021/08/07 06:49:39;;;;;;;2.97;2.57;;;20.90;99.90;;;;;;4998248;28;20480;-66
2021/08/07 06:52:08;;;;;;;4.33;2.40;;;21.30;99.90;;;;;;4998425;28;21013;-66
2021/08/07 06:54:35;;;;;;;4.70;2.03;;;21.80;99.90;;;;;;4997758;28;20801;-66
2021/08/07 06:57:01;;;;;;;2.97;2.57;;;22.20;99.90;;;;;;4998542;28;20457;-67
2021/08/07 06:59:28;;;;;;;3.70;2.80;;;22.30;99.90;;;;;;4998788;28;20463;-66
2021/08/07 07:01:55;;;;;;;3.90;2.83;;;22.50;99.90;;;;;;4997964;28;20496;-66
2021/08/07 07:04:22;;;;;;;3.60;2.33;;;22.40;99.90;;;;;;4998204;28;20481;-67
2021/08/07 07:06:49;;;;;;;3.97;2.50;;;22.50;99.90;;;;;;4998029;28;20461;-68
2021/08/07 07:09:17;;;;;;;4.10;2.77;;;22.90;99.90;;;;;;4997905;28;20453;-68
2021/08/07 07:11:43;;;;;;;2.47;2.27;;;23.30;99.90;;;;;;4998499;28;20540;-66
2021/08/07 07:14:10;;;;;;;3.37;2.27;;;24.00;99.90;;;;;;4997989;28;20453;-66
2021/08/07 07:16:37;;;;;;;3.93;1.80;;;24.90;99.90;;;;;;4998102;28;20573;-66
2021/08/07 07:19:03;;;;;;;2.63;2.40;;;25.20;99.90;;;;;;4999028;28;20442;-67
2021/08/07 07:21:30;;;;;;;2.43;1.80;;;25.30;99.90;;;;;;4998407;28;20499;-67
2021/08/07 07:23:57;;;;;;;7.87;2.00;;;25.80;99.90;;;;;;4998595;28;20457;-66
2021/08/07 07:26:27;;;;;;;3.20;2.10;;;26.20;99.90;;;;;;4997657;28;20461;-66
2021/08/07 07:28:54;;;;;;;3.07;2.10;;;26.50;99.90;;;;;;4998699;28;20442;-67
2021/08/07 07:31:21;;;;;;;2.80;2.20;;;26.00;99.90;;;;;;4996529;28;20478;-67
2021/08/07 07:33:47;;;;;;;3.97;2.30;;;25.30;99.90;;;;;;4997009;28;20462;-67
2021/08/07 07:36:14;;;;;;;3.60;2.13;;;24.90;99.90;;;;;;4997576;28;20454;-67
2021/08/07 07:38:41;;;;;;;2.10;1.60;;;24.50;99.90;;;;;;4996984;28;20935;-66
2021/08/07 07:41:08;;;;;;;3.03;1.60;;;24.00;99.90;;;;;;4997628;28;20814;-68
2021/08/07 07:43:36;;;;;;;2.10;1.83;;;23.40;99.90;;;;;;4997229;28;20817;-68
2021/08/07 07:46:03;;;;;;;4.00;2.17;;;23.20;99.90;;;;;;4997661;28;20474;-68
2021/08/07 07:48:30;;;;;;;3.33;2.20;;;23.00;99.90;;;;;;4997486;28;20460;-68
2021/08/07 07:50:57;;;;;;;3.17;1.90;;;22.70;99.90;;;;;;4997483;28;20469;-68
2021/08/07 07:53:23;;;;;;;3.00;2.57;;;22.60;99.90;;;;;;4996420;28;20454;-68
2021/08/07 07:55:50;;;;;;;6.90;3.00;;;22.30;99.90;;;;;;4996429;28;20444;-67
2021/08/07 07:58:17;;;;;;;8.77;4.77;;;22.20;99.90;;;;;;4996107;28;20454;-67
2021/08/07 08:00:45;;;;;;;8.10;4.47;;;22.20;99.90;;;;;;5000379;28;20485;-66
2021/08/07 08:03:11;;;;;;;2.63;2.43;;;22.20;99.90;;;;;;4999384;28;20612;-66
2021/08/07 08:05:38;;;;;;;4.07;2.10;;;22.20;99.90;;;;;;4996036;28;20520;-65
2021/08/07 08:08:05;;;;;;;3.00;2.47;;;22.40;99.90;;;;;;4996366;28;20453;-65
2021/08/07 08:10:35;;;;;;;3.17;2.20;;;22.80;99.90;;;;;;4996066;28;20480;-65
2021/08/07 08:13:02;;;;;;;2.33;2.00;;;23.50;99.90;;;;;;4997092;28;20493;-67
2021/08/07 08:15:29;;;;;;;4.20;2.20;;;24.30;99.90;;;;;;4996207;28;20473;-67
2021/08/07 08:17:57;;;;;;;3.50;2.10;;;24.90;99.90;;;;;;4996491;28;20465;-67
2021/08/07 08:20:25;;;;;;;2.60;1.90;;;25.50;99.90;;;;;;4996340;28;20508;-67
2021/08/07 08:22:52;;;;;;;1.93;1.83;;;26.10;99.90;;;;;;4996495;28;20460;-67
2021/08/07 08:25:18;;;;;;;3.70;2.50;;;26.40;99.90;;;;;;4996289;28;20466;-67
2021/08/07 08:27:45;;;;;;;2.13;1.90;;;26.60;99.90;;;;;;4995897;28;20457;-68
2021/08/07 08:30:12;;;;;;;2.23;1.80;;;26.50;99.90;;;;;;4995502;28;20970;-67
2021/08/07 08:32:39;;;;;;;2.33;2.03;;;26.50;99.90;;;;;;4996159;28;20458;-66
2021/08/07 08:35:07;;;;;;;2.70;2.10;;;26.30;99.90;;;;;;4996393;28;20453;-67
2021/08/07 08:37:34;;;;;;;2.10;1.90;;;26.20;99.90;;;;;;4995834;28;20481;-67
2021/08/07 08:40:01;;;;;;;3.00;2.40;;;26.00;99.90;;;;;;4995097;28;20864;-67
2021/08/07 08:42:27;;;;;;;2.60;2.40;;;25.80;99.90;;;;;;4995164;28;20474;-67
2021/08/07 08:44:54;;;;;;;4.70;2.23;;;25.70;99.90;;;;;;4995422;28;20482;-68
2021/08/07 08:47:23;;;;;;;3.43;2.63;;;25.70;99.90;;;;;;4995294;28;20516;-67
2021/08/07 08:49:51;;;;;;;2.57;2.30;;;25.60;99.90;;;;;;4995817;28;20458;-66
2021/08/07 08:52:24;;;;;;;2.90;2.10;;;25.40;99.90;;;;;;4995743;28;20814;-66
2021/08/07 08:54:51;;;;;;;4.37;1.93;;;25.30;99.90;;;;;;4995530;28;20528;-67
2021/08/07 08:57:19;;;;;;;3.57;2.13;;;25.10;99.90;;;;;;4995294;28;20943;-67
2021/08/07 08:59:46;;;;;;;2.23;2.03;;;24.90;99.90;;;;;;4995325;28;20457;-68
2021/08/07 09:02:13;;;;;;;4.60;2.20;;;24.90;99.90;;;;;;4994528;28;20855;-66
2021/08/07 09:04:40;;;;;;;2.90;2.07;;;24.90;99.90;;;;;;4994889;28;20818;-67
2021/08/07 09:07:07;;;;;;;5.67;2.60;;;24.80;99.90;;;;;;4994927;28;20465;-67
2021/08/07 09:09:40;;;;;;;2.50;2.30;;;24.90;99.90;;;;;;4994614;28;20965;-67
2021/08/07 09:12:08;;;;;;;7.23;2.30;;;24.90;99.90;;;;;;4995223;28;20477;-68
2021/08/07 09:14:36;;;;;;;3.20;1.80;;;24.90;99.90;;;;;;4994940;28;20457;-69
2021/08/07 09:17:16;;;;;;;2.47;1.40;;;24.70;99.90;;;;;;4994717;28;20458;-67
2021/08/07 09:19:54;;;;;;;3.60;1.90;;;24.60;99.90;;;;;;4995188;28;20446;-68
2021/08/07 09:22:23;;;;;;;2.20;2.00;;;24.70;99.90;;;;;;4994485;28;20480;-69
2021/08/07 09:25:10;;;;;;;2.07;1.90;;;24.50;99.90;;;;;;4994553;28;20485;-68
2021/08/07 09:27:39;;;;;;;4.57;2.37;;;24.30;99.90;;;;;;4994581;28;20492;-68
2021/08/07 09:30:29;;;;;;;1.93;1.83;;;24.50;99.90;;;;;;4994445;28;20462;-66
2021/08/07 09:32:58;;;;;;;4.60;2.17;;;24.70;99.90;;;;;;4994648;28;20442;-67
2021/08/07 09:35:26;;;;;;;2.30;1.90;;;24.70;99.90;;;;;;4994159;28;20457;-68
2021/08/07 09:38:14;;;;;;;2.60;2.20;;;24.80;99.90;;;;;;4994601;28;20454;-66
2021/08/07 09:40:45;;;;;;;2.00;1.90;;;24.90;99.90;;;;;;4994368;28;20501;-67
2021/08/07 09:43:13;;;;;;;3.93;1.93;;;24.80;99.90;;;;;;4995133;28;20441;-67
2021/08/07 09:45:40;;;;;;;2.93;1.93;;;24.80;99.90;;;;;;4994528;28;20478;-66
2021/08/07 09:48:09;;;;;;;2.07;1.97;;;24.60;99.90;;;;;;4998353;28;20453;-67
2021/08/07 09:50:37;;;;;;;1.70;1.57;;;24.50;99.90;;;;;;5002102;28;20861;-67
2021/08/07 09:53:05;;;;;;;2.03;1.90;;;24.60;99.90;;;;;;4996138;28;20861;-66
2021/08/07 09:55:33;;;;;;;1.77;1.67;;;24.30;99.90;;;;;;4994652;28;20817;-67
2021/08/07 09:58:06;;;;;;;2.17;1.97;;;24.20;99.90;;;;;;4994030;28;20458;-66
2021/08/07 10:00:38;;;;;;;2.40;1.80;;;24.10;99.90;;;;;;4994052;28;20482;-66
2021/08/07 10:03:15;;;;;;;2.50;1.90;;;24.10;99.90;;;;;;4994286;28;20449;-66
2021/08/07 10:05:42;;;;;;;2.30;1.83;;;24.00;99.90;;;;;;4994229;28;20528;-66
2021/08/07 10:08:10;;;;;;;2.20;1.90;;;23.90;99.90;;;;;;4994155;28;20464;-66
2021/08/07 10:10:37;;;;;;;3.37;2.23;;;23.90;99.90;;;;;;4994200;28;20469;-67
2021/08/07 10:13:06;;;;;;;2.27;1.50;;;23.80;99.90;;;;;;4994104;28;20938;-67
2021/08/07 10:15:33;;;;;;;2.80;2.30;;;23.80;99.90;;;;;;4998982;28;20438;-66
2021/08/07 10:18:00;;;;;;;5.03;2.20;;;23.50;99.90;;;;;;4994956;28;20458;-66
2021/08/07 10:20:28;;;;;;;2.50;2.00;;;23.30;99.90;;;;;;4994619;28;20485;-66
2021/08/07 10:22:56;;;;;;;2.90;2.30;;;23.10;99.90;;;;;;4994678;28;20461;-63
2021/08/07 10:25:24;;;;;;;12.20;7.70;;;22.80;99.90;;;;;;4994280;28;20879;-62
2021/08/07 10:27:56;;;;;;;8.03;4.50;;;22.50;99.90;;;;;;4994242;28;20454;-63
2021/08/07 10:30:24;;;;;;;10.30;9.20;;;22.20;99.90;;;;;;4994201;28;20442;-62
2021/08/07 10:32:56;;;;;;;6.00;4.40;;;22.00;99.90;;;;;;4994178;28;20461;-63
2021/08/07 10:35:24;;;;;;;3.80;3.10;;;21.80;99.90;;;;;;4994134;28;20521;-63
2021/08/07 10:37:51;;;;;;;2.87;2.40;;;21.60;99.90;;;;;;4994057;28;20486;-62
2021/08/07 10:40:18;;;;;;;5.10;2.43;;;21.40;99.90;;;;;;4993832;28;20461;-64
2021/08/07 10:42:46;;;;;;;3.03;2.10;;;21.40;99.90;;;;;;4993733;28;20971;-64
2021/08/07 10:45:13;;;;;;;4.20;1.90;;;21.20;99.90;;;;;;4994174;28;20473;-65
2021/08/07 10:47:43;;;;;;;4.50;2.33;;;21.00;99.90;;;;;;4993860;28;20453;-65
2021/08/07 10:50:35;;;;;;;6.13;2.10;;;20.80;99.90;;;;;;4993825;28;20453;-64
2021/08/07 10:53:04;;;;;;;3.70;2.60;;;20.70;99.90;;;;;;4993690;28;20537;-65
2021/08/07 10:55:49;;;;;;;5.00;2.43;;;20.40;99.90;;;;;;4993766;28;20434;-65
2021/08/07 10:58:36;;;;;;;2.60;2.30;;;20.20;99.90;;;;;;4993757;28;20854;-65
2021/08/07 11:01:29;;;;;;;3.70;2.50;;;20.00;99.90;;;;;;4993336;28;20497;-65
2021/08/07 11:04:17;;;;;;;4.27;3.10;;;20.00;99.90;;;;;;4993471;28;20460;-65
2021/08/07 11:06:49;;;;;;;10.03;4.13;;;20.00;99.90;;;;;;4996140;28;20469;-65
2021/08/07 11:09:18;;;;;;;4.03;3.60;;;19.90;99.90;;;;;;4997312;28;20449;-64
2021/08/07 11:11:46;;;;;;;4.60;3.80;;;19.70;99.90;;;;;;4996825;28;20476;-65
2021/08/07 11:14:48;;;;;;;4.60;4.20;;;19.50;99.90;;;;;;4996656;28;20941;-64
2021/08/07 11:17:33;;;;;;;4.33;3.80;;;19.30;99.90;;;;;;4955889;29;20490;-65
2021/08/07 11:20:07;;;;;;;4.07;3.50;;;19.30;99.90;;;;;;4955524;29;20961;-65
2021/08/07 11:23:07;;;;;;;3.13;2.87;;;19.20;99.90;;;;;;4981248;28;20486;-65
2021/08/07 11:26:04;;;;;;;3.57;3.27;;;19.20;99.90;;;;;;4996570;28;20520;-65
2021/08/07 11:28:32;;;;;;;5.70;4.07;;;19.10;99.90;;;;;;4996450;28;20442;-65
2021/08/07 11:31:17;;;;;;;4.23;3.83;;;19.10;99.90;;;;;;4996664;28;20473;-65
2021/08/07 11:33:44;;;;;;;6.00;4.93;;;19.10;99.90;;;;;;4996650;28;20437;-65
2021/08/07 11:36:18;;;;;;;4.63;3.67;;;19.10;99.90;;;;;;4996637;28;20446;-65
2021/08/07 11:39:06;;;;;;;4.30;3.90;;;19.00;99.90;;;;;;4996701;28;20442;-64
2021/08/07 11:41:37;;;;;;;5.17;3.60;;;19.00;99.90;;;;;;4996417;28;20473;-65
2021/08/07 11:44:05;;;;;;;4.67;4.30;;;19.00;99.90;;;;;;4996609;28;20446;-65
2021/08/07 11:46:38;;;;;;;4.40;3.43;;;18.90;99.90;;;;;;4999931;28;20568;-65
2021/08/07 11:49:07;;;;;;;3.63;3.27;;;18.80;99.90;;;;;;4996375;28;20504;-64
2021/08/07 11:51:36;;;;;;;4.13;3.43;;;18.80;99.90;;;;;;4996319;28;20480;-65
2021/08/07 11:54:04;;;;;;;3.53;3.23;;;18.70;99.90;;;;;;4996601;28;20525;-67
2021/08/07 11:56:37;;;;;;;6.20;3.93;;;18.80;99.90;;;;;;4996429;28;20533;-67
2021/08/07 11:59:06;;;;;;;4.97;3.90;;;18.70;99.90;;;;;;4996209;28;20500;-67
2021/08/07 12:01:35;;;;;;;6.27;4.00;;;18.70;99.90;;;;;;4995757;28;20485;-68
2021/08/07 12:04:02;;;;;;;5.30;4.50;;;18.80;99.90;;;;;;4996432;28;20442;-67
2021/08/07 12:06:30;;;;;;;6.87;4.40;;;18.90;99.90;;;;;;4996382;28;20486;-67
2021/08/07 12:08:59;;;;;;;4.70;4.30;;;18.70;99.90;;;;;;4995807;28;20866;-68
2021/08/07 12:11:26;;;;;;;4.93;4.50;;;18.70;99.90;;;;;;4996158;28;21044;-67
2021/08/07 12:13:54;;;;;;;5.80;4.37;;;18.80;99.90;;;;;;4995813;28;20904;-67
2021/08/07 12:16:23;;;;;;;7.07;4.67;;;18.80;99.90;;;;;;4995379;28;20450;-68
2021/08/07 12:18:53;;;;;;;6.17;4.90;;;18.80;99.90;;;;;;4995797;28;20457;-67
2021/08/07 12:21:34;;;;;;;7.40;4.83;;;18.90;99.90;;;;;;4996427;28;20498;-67
2021/08/07 12:24:05;;;;;;;6.40;5.40;;;18.90;99.90;;;;;;4995819;28;20441;-67
2021/08/07 12:26:42;;;;;;;4.80;4.40;;;19.00;99.90;;;;;;4995544;28;20469;-67
2021/08/07 12:29:14;;;;;;;9.73;4.50;;;19.10;99.90;;;;;;4995602;28;20438;-67
2021/08/07 12:31:47;;;;;;;4.27;3.97;;;19.10;99.90;;;;;;4995550;28;20540;-68
2021/08/07 12:34:17;;;;;;;4.90;4.53;;;19.20;99.90;;;;;;4995747;28;20442;-68
2021/08/07 12:36:56;;;;;;;4.33;3.40;;;19.10;99.90;;;;;;4995332;28;20458;-67
2021/08/07 12:39:24;;;;;;;4.53;3.67;;;19.10;99.90;;;;;;4995386;28;20476;-67
2021/08/07 12:41:51;;;;;;;4.90;3.90;;;19.00;99.90;;;;;;4994920;28;20532;-67
2021/08/07 12:44:23;;;;;;;4.73;4.33;;;18.90;99.90;;;;;;4995257;28;20465;-67
2021/08/07 12:46:53;;;;;;;6.77;4.00;;;19.00;99.90;;;;;;4995039;28;20482;-67
2021/08/07 12:49:33;;;;;;;4.73;4.00;;;19.00;99.90;;;;;;4995217;28;20438;-67
2021/08/07 12:52:05;;;;;;;4.70;4.30;;;18.90;99.90;;;;;;4995083;28;20485;-67
2021/08/07 12:54:33;;;;;;;5.17;4.77;;;18.90;99.90;;;;;;4994759;28;20458;-66
2021/08/07 12:57:00;;;;;;;5.90;5.30;;;18.90;99.90;;;;;;4995064;28;20438;-66
2021/08/07 12:59:27;;;;;;;4.97;4.20;;;18.90;99.90;;;;;;4995077;28;20458;-66
2021/08/07 13:02:02;;;;;;;4.17;3.87;;;18.70;99.90;;;;;;4994419;28;20492;-66
2021/08/07 13:04:43;;;;;;;4.70;4.20;;;18.60;99.90;;;;;;4995565;28;20461;-66
2021/08/07 13:07:10;;;;;;;4.80;3.60;;;18.60;99.90;;;;;;4994709;28;20474;-67
2021/08/07 13:09:38;;;;;;;4.00;3.60;;;18.60;99.90;;;;;;4994645;28;20460;-67
2021/08/07 13:12:10;;;;;;;6.60;3.63;;;18.50;99.90;;;;;;4994666;28;20478;-66
2021/08/07 13:14:39;;;;;;;4.03;3.70;;;18.40;99.90;;;;;;4995171;28;20446;-66
2021/08/07 13:17:06;;;;;;;4.37;3.97;;;18.40;99.90;;;;;;4997139;28;20926;-66
2021/08/07 13:19:37;;;;;;;4.90;2.93;;;18.40;99.90;;;;;;4995116;28;20985;-67
2021/08/07 13:22:16;;;;;;;3.50;2.87;;;18.20;99.90;;;;;;4994862;28;20474;-67
2021/08/07 13:24:51;;;;;;;4.70;3.20;;;18.10;99.90;;;;;;4994504;28;20453;-67
2021/08/07 13:27:18;;;;;;;4.10;3.03;;;18.10;99.90;;;;;;4994463;28;20488;-66
2021/08/07 13:29:45;;;;;;;6.97;3.90;;;18.00;99.90;;;;;;4993450;28;20989;-66
2021/08/07 13:32:20;;;;;;;5.90;3.53;;;18.00;99.90;;;;;;4994858;28;20480;-66
2021/08/07 13:34:47;;;;;;;4.20;3.60;;;17.90;99.90;;;;;;4994365;28;20480;-67
2021/08/07 13:37:14;;;;;;;4.50;4.10;;;17.90;99.90;;;;;;4994430;28;20475;-66
2021/08/07 13:39:41;;;;;;;7.80;4.43;;;18.00;99.90;;;;;;4994374;28;20484;-66
2021/08/07 13:42:09;;;;;;;3.90;3.37;;;18.00;99.90;;;;;;4994268;28;20524;-65
2021/08/07 13:44:36;;;;;;;8.27;3.57;;;17.80;99.90;;;;;;4994280;28;20577;-65
2021/08/07 13:47:04;;;;;;;3.20;2.90;;;17.70;99.90;;;;;;4993970;28;20989;-65
2021/08/07 13:49:30;;;;;;;2.60;2.40;;;17.60;99.90;;;;;;4994339;28;20813;-65
2021/08/07 13:51:57;;;;;;;3.23;2.00;;;17.50;99.90;;;;;;4994484;28;20477;-66
2021/08/07 13:54:24;;;;;;;2.73;2.23;;;17.50;99.90;;;;;;4993988;28;20974;-65
2021/08/07 13:56:52;;;;;;;2.27;2.17;;;17.40;99.90;;;;;;4994187;28;20476;-66
2021/08/07 13:59:20;;;;;;;3.93;2.00;;;17.40;99.90;;;;;;4994662;28;20461;-65
2021/08/07 14:01:46;;;;;;;4.77;2.50;;;17.30;99.90;;;;;;4993771;28;20486;-65
2021/08/07 14:04:13;;;;;;;3.23;2.93;;;17.20;99.90;;;;;;4994246;28;20466;-66
2021/08/07 14:06:40;;;;;;;2.77;2.63;;;17.20;99.90;;;;;;4994197;28;20500;-66
2021/08/07 14:09:06;;;;;;;4.20;3.17;;;17.30;99.90;;;;;;4994250;28;20438;-66
2021/08/07 14:11:34;;;;;;;4.23;3.17;;;17.20;99.90;;;;;;4994361;28;20473;-66
2021/08/07 14:14:00;;;;;;;3.13;2.63;;;17.10;99.90;;;;;;4994512;28;20461;-66
2021/08/07 14:16:28;;;;;;;3.40;3.10;;;17.10;99.90;;;;;;4994036;28;20457;-66
2021/08/07 14:18:55;;;;;;;3.50;3.27;;;17.10;99.90;;;;;;4994045;28;20450;-66
2021/08/07 14:21:22;;;;;;;4.37;3.20;;;17.10;99.90;;;;;;4993905;28;20473;-66
2021/08/07 14:23:48;;;;;;;3.30;3.00;;;17.20;99.90;;;;;;4994023;28;20465;-67
2021/08/07 14:26:15;;;;;;;3.30;2.40;;;17.20;99.90;;;;;;4994048;28;20508;-66
2021/08/07 14:28:43;;;;;;;5.33;2.87;;;17.10;99.90;;;;;;4998086;28;20481;-66
2021/08/07 14:31:10;;;;;;;3.57;2.63;;;17.10;99.90;;;;;;4999426;28;20474;-66
2021/08/07 14:33:38;;;;;;;2.87;2.40;;;17.10;99.90;;;;;;4998235;28;20458;-66
2021/08/07 14:36:05;;;;;;;2.30;2.20;;;17.10;99.90;;;;;;4996174;28;20454;-66
2021/08/07 14:38:32;;;;;;;5.90;2.87;;;17.00;99.90;;;;;;4994233;28;20819;-65
2021/08/07 14:40:58;;;;;;;2.67;2.47;;;17.00;99.90;;;;;;4997685;28;20480;-65
2021/08/07 14:43:25;;;;;;;4.30;2.90;;;17.00;99.90;;;;;;4997769;28;20454;-65
2021/08/07 14:45:52;;;;;;;4.00;3.00;;;16.90;99.90;;;;;;4997267;28;20450;-66
2021/08/07 14:48:19;;;;;;;4.00;3.03;;;16.90;99.90;;;;;;4998278;28;20816;-65
2021/08/07 14:50:47;;;;;;;3.50;2.90;;;16.90;99.90;;;;;;4997654;28;20485;-65
2021/08/07 14:53:14;;;;;;;3.67;3.37;;;16.80;99.90;;;;;;4997447;28;20460;-65
2021/08/07 14:55:41;;;;;;;2.67;2.57;;;16.80;99.90;;;;;;4997838;28;20479;-65
2021/08/07 14:58:07;;;;;;;3.13;2.93;;;16.80;99.90;;;;;;4997534;28;20461;-65
2021/08/07 15:00:35;;;;;;;3.83;3.13;;;16.80;99.90;;;;;;4996834;28;20942;-65
2021/08/07 15:03:02;;;;;;;3.03;2.60;;;16.80;99.90;;;;;;4997154;28;20453;-65
2021/08/07 15:05:29;;;;;;;4.40;2.43;;;16.80;99.90;;;;;;4996889;28;20797;-65
2021/08/07 15:07:57;;;;;;;4.17;2.97;;;16.90;99.90;;;;;;4997010;28;20477;-65
2021/08/07 15:10:24;;;;;;;2.30;2.10;;;16.90;99.90;;;;;;4997264;28;20454;-65
2021/08/07 15:12:51;;;;;;;2.83;2.63;;;16.90;99.90;;;;;;4997034;28;20500;-65
2021/08/07 15:15:18;;;;;;;4.83;2.50;;;16.90;99.90;;;;;;4997236;28;20466;-66
2021/08/07 15:17:45;;;;;;;3.00;2.70;;;16.90;99.90;;;;;;4996660;28;20938;-66
2021/08/07 15:20:12;;;;;;;2.50;2.20;;;16.90;99.90;;;;;;4996552;28;20795;-66
2021/08/07 15:22:39;;;;;;;2.40;2.20;;;16.90;99.90;;;;;;4996801;28;20473;-66
2021/08/07 15:25:09;;;;;;;2.17;2.00;;;16.90;99.90;;;;;;4996781;28;20830;-65
2021/08/07 15:27:35;;;;;;;1.93;1.83;;;16.90;99.90;;;;;;4996937;28;20481;-65
2021/08/07 15:30:03;;;;;;;2.90;2.67;;;16.90;99.90;;;;;;4996747;28;20458;-66
2021/08/07 15:32:29;;;;;;;2.03;1.93;;;17.00;99.90;;;;;;4996503;28;20481;-66
2021/08/07 15:34:56;;;;;;;2.33;2.23;;;16.90;99.90;;;;;;4996822;28;20519;-66
2021/08/07 15:37:23;;;;;;;3.23;2.00;;;17.00;99.90;;;;;;4996591;28;20454;-66
2021/08/07 15:39:50;;;;;;;2.33;2.07;;;17.10;99.90;;;;;;4996604;28;20462;-66
2021/08/07 15:42:19;;;;;;;1.60;1.60;;;17.00;99.90;;;;;;4996178;28;20482;-66
2021/08/07 15:44:46;;;;;;;2.17;2.00;;;17.10;99.90;;;;;;4996468;28;20575;-66
2021/08/07 15:47:13;;;;;;;5.17;2.13;;;17.10;99.90;;;;;;4996307;28;20478;-66
2021/08/07 15:49:40;;;;;;;4.70;2.17;;;17.10;99.90;;;;;;4996277;28;20462;-66
2021/08/07 15:52:07;;;;;;;2.00;1.90;;;17.20;99.90;;;;;;4995498;28;20482;-66
2021/08/07 15:54:34;;;;;;;3.23;1.83;;;17.30;99.90;;;;;;4997541;28;20489;-66
2021/08/07 15:57:03;;;;;;;3.10;2.20;;;17.40;99.90;;;;;;4997476;28;20796;-67
2021/08/07 15:59:31;;;;;;;2.30;2.20;;;17.50;99.90;;;;;;4998094;28;20460;-65
2021/08/07 16:01:58;;;;;;;2.17;1.97;;;17.60;99.90;;;;;;4996436;28;20489;-65
2021/08/07 16:04:25;;;;;;;3.33;1.80;;;17.60;99.90;;;;;;4996001;28;20442;-65
2021/08/07 16:06:51;;;;;;;2.43;2.33;;;17.80;99.90;;;;;;4995924;28;20481;-66
2021/08/07 16:09:18;;;;;;;2.27;2.13;;;17.80;99.90;;;;;;4996320;28;20531;-67
2021/08/07 16:11:45;;;;;;;2.13;2.00;;;17.90;99.90;;;;;;4995810;28;20481;-66
2021/08/07 16:14:11;;;;;;;1.90;1.80;;;18.00;99.90;;;;;;4995887;28;20457;-67
2021/08/07 16:16:39;;;;;;;2.60;2.30;;;17.90;99.90;;;;;;4995879;28;20485;-67
2021/08/07 16:19:06;;;;;;;3.07;1.80;;;17.90;99.90;;;;;;4999568;28;20468;-66
2021/08/07 16:21:33;;;;;;;1.97;1.80;;;17.80;99.90;;;;;;4997862;28;20500;-66
2021/08/07 16:24:00;;;;;;;1.87;1.83;;;17.80;99.90;;;;;;4995302;28;20946;-67
2021/08/07 16:26:27;;;;;;;2.30;2.20;;;17.80;99.90;;;;;;4995290;28;20827;-66
2021/08/07 16:28:54;;;;;;;2.80;1.97;;;17.70;99.90;;;;;;4995449;28;20485;-66
2021/08/07 16:31:22;;;;;;;2.90;1.80;;;17.70;99.90;;;;;;4995397;28;20477;-67
2021/08/07 16:33:50;;;;;;;2.47;2.37;;;17.70;99.90;;;;;;4995697;28;20453;-67
2021/08/07 16:36:16;;;;;;;3.47;2.47;;;17.60;99.90;;;;;;4996183;28;20461;-67
2021/08/07 16:38:43;;;;;;;2.70;2.50;;;17.60;99.90;;;;;;4995779;28;20453;-67
2021/08/07 16:41:10;;;;;;;2.53;2.23;;;17.50;99.90;;;;;;4995441;28;20484;-67
2021/08/07 16:43:37;;;;;;;1.80;1.70;;;17.50;99.90;;;;;;4995021;28;20955;-67
2021/08/07 16:46:08;;;;;;;4.27;2.73;;;17.40;99.90;;;;;;4995302;28;20442;-67
2021/08/07 16:48:35;;;;;;;2.30;2.20;;;17.40;99.90;;;;;;4995482;28;20569;-65
2021/08/07 16:51:03;;;;;;;1.70;1.70;;;17.40;99.90;;;;;;4995047;28;20484;-65
2021/08/07 16:53:30;;;;;;;2.00;1.90;;;17.40;99.90;;;;;;4995312;28;20438;-67